createdAt,value
2023-03-26T00:01:30.274Z,9.96
2023-03-26T00:03:58.018Z,10.13
2023-03-26T00:06:31.439Z,10.10
2023-03-26T00:08:59.465Z,10.04
2023-03-26T00:11:31.453Z,10.01
2023-03-26T00:13:59.217Z,10.01
2023-03-26T00:16:30.460Z,10.13
2023-03-26T00:18:58.456Z,10.12
2023-03-26T00:21:28.320Z,10.02
2023-03-26T00:24:00.150Z,10.15
2023-03-26T00:26:29.582Z,10.19
2023-03-26T00:28:58.355Z,10.38
2023-03-26T00:31:27.496Z,10.39
2023-03-26T00:33:55.452Z,10.33
2023-03-26T00:36:26.686Z,10.31
2023-03-26T00:38:54.183Z,10.40
2023-03-26T00:41:25.975Z,10.39
2023-03-26T00:43:57.694Z,10.10
2023-03-26T00:46:27.230Z,10.40
2023-03-26T00:48:54.123Z,10.34
2023-03-26T00:51:22.070Z,10.16
2023-03-26T00:53:49.814Z,9.81
2023-03-26T00:56:19.799Z,10.22
2023-03-26T00:58:52.173Z,9.90
2023-03-26T01:01:21.708Z,10.07
2023-03-26T01:04:04.757Z,10.02
2023-03-26T01:06:37.996Z,10.11
2023-03-26T01:09:28.224Z,10.14
2023-03-26T01:11:55.101Z,10.01
2023-03-26T01:14:25.207Z,9.84
2023-03-26T01:16:54.826Z,10.01
2023-03-26T01:19:38.277Z,9.78
2023-03-26T01:22:12.058Z,9.93
2023-03-26T01:24:40.042Z,9.94
2023-03-26T01:27:33.789Z,9.93
2023-03-26T01:30:15.818Z,9.95
2023-03-26T01:33:00.767Z,10.16
2023-03-26T01:35:58.164Z,9.98
2023-03-26T01:38:48.203Z,9.97
2023-03-26T01:41:31.223Z,9.79
2023-03-26T01:44:06.851Z,9.91
2023-03-26T01:46:36.491Z,9.78
2023-03-26T01:49:06.357Z,9.77
2023-03-26T01:51:35.614Z,10.01
2023-03-26T01:54:04.352Z,9.93
2023-03-26T01:56:44.504Z,10.06
2023-03-26T01:59:39.712Z,9.99
2023-03-26T02:02:16.992Z,9.75
2023-03-26T02:05:12.799Z,9.90
2023-03-26T02:07:45.824Z,10.02
2023-03-26T02:10:17.730Z,10.06
2023-03-26T02:12:44.617Z,10.05
2023-03-26T02:15:16.716Z,9.77
2023-03-26T02:17:43.303Z,9.97
2023-03-26T02:20:13.233Z,10.05
2023-03-26T02:22:44.592Z,10.05
2023-03-26T02:25:31.960Z,10.08
2023-03-26T02:27:58.500Z,10.13
2023-03-26T02:30:26.438Z,9.92
2023-03-26T02:32:54.453Z,9.81
2023-03-26T02:35:23.838Z,10.01
2023-03-26T02:37:50.958Z,10.06
2023-03-26T02:40:22.534Z,10.04
2023-03-26T02:42:49.533Z,10.00
2023-03-26T02:45:16.129Z,9.85
2023-03-26T02:47:43.770Z,9.93
2023-03-26T02:50:14.212Z,10.05
2023-03-26T02:52:41.690Z,10.10
2023-03-26T02:55:08.695Z,10.06
2023-03-26T02:57:36.024Z,10.21
2023-03-26T03:00:06.370Z,10.26
2023-03-26T03:02:32.949Z,10.09
2023-03-26T03:05:01.891Z,10.16
2023-03-26T03:07:29.273Z,10.01
2023-03-26T03:09:56.253Z,9.99
2023-03-26T03:12:23.110Z,10.09
2023-03-26T03:14:49.714Z,9.81
2023-03-26T03:17:16.556Z,10.09
2023-03-26T03:19:43.307Z,10.11
2023-03-26T03:22:09.867Z,10.12
2023-03-26T03:24:43.986Z,10.18
2023-03-26T03:27:10.679Z,10.16
2023-03-26T03:29:37.717Z,10.35
2023-03-26T03:32:04.950Z,10.22
2023-03-26T03:34:31.546Z,10.35
2023-03-26T03:36:58.021Z,10.19
2023-03-26T03:39:24.535Z,10.25
2023-03-26T03:41:51.080Z,10.12
2023-03-26T03:44:17.896Z,10.27
2023-03-26T03:46:44.502Z,10.25
2023-03-26T03:49:11.470Z,10.19
2023-03-26T03:51:38.040Z,10.42
2023-03-26T03:54:05.129Z,10.28
2023-03-26T03:56:31.694Z,10.35
2023-03-26T03:58:58.436Z,10.07
2023-03-26T04:01:25.156Z,10.02
2023-03-26T04:03:51.963Z,10.25
2023-03-26T04:06:19.026Z,10.13
2023-03-26T04:08:46.416Z,10.09
2023-03-26T04:11:14.635Z,10.09
2023-03-26T04:13:41.347Z,9.90
2023-03-26T04:16:09.238Z,9.99
2023-03-26T04:18:37.508Z,9.97
2023-03-26T04:21:05.366Z,10.07
2023-03-26T04:23:32.208Z,9.94
2023-03-26T04:26:04.115Z,9.75
2023-03-26T04:28:43.981Z,9.75
2023-03-26T04:31:15.695Z,9.70
2023-03-26T04:33:48.684Z,9.75
2023-03-26T04:36:16.597Z,9.61
2023-03-26T04:38:46.459Z,9.42
2023-03-26T04:41:14.152Z,9.63
2023-03-26T04:43:47.438Z,9.56
2023-03-26T04:46:14.715Z,9.44
2023-03-26T04:48:41.502Z,9.43
2023-03-26T04:51:09.874Z,9.40
2023-03-26T04:53:36.808Z,9.39
2023-03-26T04:56:13.702Z,9.54
2023-03-26T04:58:40.644Z,9.61
2023-03-26T05:01:11.071Z,9.49
2023-03-26T05:03:40.698Z,9.57
2023-03-26T05:06:09.477Z,9.58
2023-03-26T05:08:36.449Z,9.62
2023-03-26T05:11:03.231Z,9.76
2023-03-26T05:13:29.947Z,9.59
2023-03-26T05:15:56.653Z,9.53
2023-03-26T05:18:23.299Z,9.53
2023-03-26T05:20:51.084Z,9.71
2023-03-26T05:23:17.679Z,9.75
2023-03-26T05:25:44.359Z,9.65
2023-03-26T05:28:11.674Z,9.61
2023-03-26T05:30:38.650Z,9.72
2023-03-26T05:33:05.526Z,9.78
2023-03-26T05:35:32.397Z,9.72
2023-03-26T05:37:59.014Z,9.82
2023-03-26T05:40:26.037Z,9.95
2023-03-26T05:42:52.835Z,9.97
2023-03-26T05:45:19.707Z,9.78
2023-03-26T05:47:46.362Z,9.77
2023-03-26T05:50:13.052Z,9.92
2023-03-26T05:52:39.692Z,9.78
2023-03-26T05:55:08.439Z,9.93
2023-03-26T05:57:35.568Z,9.94
2023-03-26T06:00:04.197Z,10.01
2023-03-26T06:02:30.999Z,10.35
2023-03-26T06:04:57.736Z,10.15
2023-03-26T06:07:24.453Z,10.05
2023-03-26T06:09:51.274Z,10.19
2023-03-26T06:12:18.134Z,10.13
2023-03-26T06:14:45.755Z,10.13
2023-03-26T06:17:12.720Z,10.22
2023-03-26T06:19:39.571Z,10.06
2023-03-26T06:22:06.511Z,9.82
2023-03-26T06:24:33.374Z,10.10
2023-03-26T06:27:00.211Z,10.27
2023-03-26T06:29:27.222Z,10.43
2023-03-26T06:31:54.022Z,10.36
2023-03-26T06:34:20.933Z,10.25
2023-03-26T06:36:48.852Z,10.58
2023-03-26T06:39:16.212Z,10.51
2023-03-26T06:41:42.823Z,10.56
2023-03-26T06:44:09.518Z,10.69
2023-03-26T06:46:36.492Z,10.76
2023-03-26T06:49:04.955Z,10.53
2023-03-26T06:51:32.328Z,10.88
2023-03-26T06:53:58.907Z,10.87
2023-03-26T06:56:25.455Z,10.64
2023-03-26T06:58:52.124Z,10.71
2023-03-26T07:01:18.997Z,11.02
2023-03-26T07:03:46.084Z,10.76
2023-03-26T07:06:12.870Z,10.83
2023-03-26T07:08:39.528Z,10.86
2023-03-26T07:11:06.328Z,10.47
2023-03-26T07:13:32.972Z,10.62
2023-03-26T07:15:59.644Z,10.77
2023-03-26T07:18:26.388Z,10.86
2023-03-26T07:20:53.952Z,10.73
2023-03-26T07:23:21.475Z,10.86
2023-03-26T07:25:48.744Z,10.90
2023-03-26T07:28:27.622Z,10.91
2023-03-26T07:31:19.086Z,10.72
2023-03-26T07:33:57.369Z,10.96
2023-03-26T07:36:43.473Z,10.78
2023-03-26T07:39:23.338Z,10.67
2023-03-26T07:41:53.710Z,10.79
2023-03-26T07:44:41.455Z,10.55
2023-03-26T07:47:22.495Z,10.21
2023-03-26T07:49:49.495Z,9.96
2023-03-26T07:52:16.575Z,10.01
2023-03-26T07:54:43.426Z,9.97
2023-03-26T07:57:25.540Z,10.07
2023-03-26T08:00:00.500Z,10.04
2023-03-26T08:02:37.036Z,9.97
2023-03-26T08:05:19.040Z,10.18
2023-03-26T08:08:13.940Z,10.02
2023-03-26T08:10:46.426Z,10.17
2023-03-26T08:13:34.776Z,10.29
2023-03-26T08:16:16.826Z,9.99
2023-03-26T08:19:09.220Z,10.16
2023-03-26T08:21:40.667Z,9.65
2023-03-26T08:24:36.563Z,9.85
2023-03-26T08:27:24.439Z,10.28
2023-03-26T08:29:58.193Z,9.97
2023-03-26T08:32:25.865Z,10.01
2023-03-26T08:34:52.734Z,10.20
2023-03-26T08:37:19.361Z,10.03
2023-03-26T08:39:45.975Z,10.50
2023-03-26T08:42:16.127Z,10.16
2023-03-26T08:45:04.149Z,10.32
2023-03-26T08:48:08.592Z,10.48
2023-03-26T08:51:07.784Z,10.36
2023-03-26T08:54:14.908Z,10.21
2023-03-26T08:57:02.684Z,9.88
2023-03-26T08:59:51.889Z,10.24
2023-03-26T09:02:40.944Z,10.11
2023-03-26T09:05:46.586Z,9.91
2023-03-26T09:08:38.168Z,9.35
2023-03-26T09:12:09.054Z,9.63
2023-03-26T09:14:56.389Z,9.75
2023-03-26T09:18:00.245Z,9.75
2023-03-26T09:20:58.818Z,9.67
2023-03-26T09:23:43.875Z,8.94
2023-03-26T09:26:32.638Z,9.28
2023-03-26T09:29:14.467Z,9.52
2023-03-26T09:32:11.901Z,9.66
2023-03-26T09:34:44.559Z,9.68
2023-03-26T09:37:22.118Z,9.47
2023-03-26T09:40:17.787Z,9.74
2023-03-26T09:43:03.327Z,9.93
2023-03-26T09:45:45.363Z,9.46
2023-03-26T09:48:33.480Z,9.12
2023-03-26T09:51:03.145Z,9.46
2023-03-26T09:53:50.569Z,9.72
2023-03-26T09:56:48.205Z,9.55
2023-03-26T09:59:29.643Z,9.99
2023-03-26T10:02:18.040Z,10.01
2023-03-26T10:04:50.579Z,10.07
2023-03-26T10:07:31.540Z,9.45
2023-03-26T10:10:32.781Z,9.61
2023-03-26T10:13:14.407Z,9.98
2023-03-26T10:16:16.357Z,9.97
2023-03-26T10:19:00.128Z,10.20
2023-03-26T10:21:58.971Z,10.07
2023-03-26T10:24:44.954Z,9.79
2023-03-26T10:27:28.240Z,10.04
2023-03-26T10:30:13.927Z,9.53
2023-03-26T10:32:55.500Z,9.90
2023-03-26T10:36:05.981Z,9.67
2023-03-26T10:38:53.926Z,10.27
2023-03-26T10:42:05.450Z,10.66
2023-03-26T10:44:50.796Z,11.94
2023-03-26T10:47:48.076Z,11.62
2023-03-26T10:50:27.081Z,11.69
2023-03-26T10:53:23.208Z,12.02
2023-03-26T10:55:58.381Z,12.00
2023-03-26T10:58:29.483Z,11.44
2023-03-26T11:01:28.798Z,11.39
2023-03-26T11:03:56.933Z,11.88
2023-03-26T11:06:33.477Z,11.79
2023-03-26T11:09:09.983Z,11.94
2023-03-26T11:11:52.627Z,11.63
2023-03-26T11:14:41.692Z,11.34
2023-03-26T11:17:57.331Z,12.15
2023-03-26T11:20:30.305Z,12.82
2023-03-26T11:23:31.639Z,13.01
2023-03-26T11:26:08.859Z,12.39
2023-03-26T11:29:31.281Z,12.04
2023-03-26T11:32:19.189Z,11.97
2023-03-26T11:35:00.876Z,11.36
2023-03-26T11:37:56.710Z,11.19
2023-03-26T11:40:37.165Z,11.25
2023-03-26T11:43:35.723Z,11.04
2023-03-26T11:46:09.931Z,10.95
2023-03-26T11:48:49.892Z,11.07
2023-03-26T11:51:35.627Z,11.30
2023-03-26T11:54:03.873Z,11.34
2023-03-26T11:57:05.434Z,11.78
2023-03-26T11:59:58.064Z,11.79
2023-03-26T12:02:44.557Z,11.58
2023-03-26T12:05:31.536Z,12.17
2023-03-26T12:08:00.755Z,12.63
2023-03-26T12:10:38.016Z,12.88
2023-03-26T12:13:29.378Z,13.21
2023-03-26T12:16:11.807Z,12.40
2023-03-26T12:18:39.856Z,12.47
2023-03-26T12:21:08.536Z,11.61
2023-03-26T12:24:00.898Z,11.86
2023-03-26T12:26:39.447Z,12.05
2023-03-26T12:29:13.726Z,12.02
2023-03-26T12:32:04.064Z,12.07
2023-03-26T12:34:35.319Z,11.93
2023-03-26T12:37:03.768Z,11.81
2023-03-26T12:40:06.805Z,12.44
2023-03-26T12:44:49.932Z,12.63
2023-03-26T12:45:27.981Z,12.87
2023-03-26T12:48:03.931Z,13.09
2023-03-26T12:50:55.100Z,13.48
2023-03-26T12:53:53.607Z,13.42
2023-03-26T12:56:40.656Z,13.55
2023-03-26T12:59:14.160Z,13.41
2023-03-26T13:02:02.136Z,13.68
2023-03-26T13:04:34.745Z,13.47
2023-03-26T13:07:28.955Z,14.21
2023-03-26T13:10:26.070Z,13.59
2023-03-26T13:13:23.702Z,14.24
2023-03-26T13:16:02.137Z,13.71
2023-03-26T13:18:44.198Z,13.73
2023-03-26T13:21:12.444Z,12.98
2023-03-26T13:23:46.882Z,12.89
2023-03-26T13:26:48.724Z,12.86
2023-03-26T13:29:41.069Z,12.93
2023-03-26T13:32:46.766Z,12.68
2023-03-26T13:35:29.949Z,14.13
2023-03-26T13:38:11.478Z,14.62
2023-03-26T13:41:04.408Z,14.57
2023-03-26T13:44:19.123Z,14.30
2023-03-26T13:47:09.825Z,13.88
2023-03-26T13:49:42.609Z,13.35
2023-03-26T13:52:15.123Z,13.20
2023-03-26T13:54:48.473Z,13.49
2023-03-26T13:57:24.096Z,12.55
2023-03-26T14:00:06.221Z,12.82
2023-03-26T14:02:40.904Z,12.35
2023-03-26T14:05:39.322Z,12.73
2023-03-26T14:08:16.276Z,12.56
2023-03-26T14:10:54.062Z,12.72
2023-03-26T14:13:35.734Z,12.61
2023-03-26T14:16:08.132Z,12.99
2023-03-26T14:18:44.454Z,15.01
2023-03-26T14:21:49.773Z,15.73
2023-03-26T14:24:52.680Z,17.42
2023-03-26T14:27:20.473Z,15.82
2023-03-26T14:29:59.457Z,15.01
2023-03-26T14:32:40.757Z,14.24
2023-03-26T14:35:15.657Z,13.89
2023-03-26T14:38:08.010Z,13.45
2023-03-26T14:41:18.419Z,13.59
2023-03-26T14:44:20.984Z,13.21
2023-03-26T14:47:14.847Z,13.55
2023-03-26T14:50:08.968Z,14.07
2023-03-26T14:53:00.987Z,14.21
2023-03-26T14:55:28.149Z,13.89
2023-03-26T14:58:28.081Z,13.92
2023-03-26T15:01:23.114Z,14.27
2023-03-26T15:04:24.397Z,13.88
2023-03-26T15:07:09.065Z,14.12
2023-03-26T15:10:17.660Z,13.86
2023-03-26T15:12:55.067Z,13.88
2023-03-26T15:15:53.996Z,13.92
2023-03-26T15:19:04.595Z,13.52
2023-03-26T15:22:09.192Z,13.57
2023-03-26T15:24:57.788Z,13.88
2023-03-26T15:28:26.463Z,14.36
2023-03-26T15:31:15.286Z,14.58
2023-03-26T15:34:16.690Z,14.55
2023-03-26T15:37:22.424Z,14.25
2023-03-26T15:40:12.198Z,14.24
2023-03-26T15:43:01.844Z,14.12
2023-03-26T15:45:42.036Z,13.99
2023-03-26T15:48:20.203Z,13.96
2023-03-26T15:51:19.273Z,13.77
2023-03-26T15:54:16.417Z,13.67
2023-03-26T15:56:44.731Z,13.46
2023-03-26T15:59:31.879Z,12.98
2023-03-26T16:02:16.650Z,12.00
2023-03-26T16:05:05.980Z,11.04
2023-03-26T16:07:50.878Z,10.38
2023-03-26T16:10:21.980Z,10.22
2023-03-26T16:12:56.679Z,10.14
2023-03-26T16:15:27.288Z,10.04
2023-03-26T16:18:06.216Z,10.02
2023-03-26T16:20:46.715Z,9.75
2023-03-26T16:23:53.720Z,10.01
2023-03-26T16:26:38.838Z,9.84
2023-03-26T16:29:29.791Z,9.98
2023-03-26T16:32:18.786Z,10.09
2023-03-26T16:35:09.924Z,10.21
2023-03-26T16:37:43.915Z,10.06
2023-03-26T16:40:23.848Z,10.12
2023-03-26T16:43:12.737Z,10.42
2023-03-26T16:45:42.268Z,10.14
2023-03-26T16:48:47.400Z,10.07
2023-03-26T16:51:32.100Z,10.19
2023-03-26T16:54:28.135Z,10.03
2023-03-26T16:57:14.917Z,10.04
2023-03-26T17:00:05.357Z,10.08
2023-03-26T17:03:06.644Z,10.05
2023-03-26T17:06:02.028Z,9.95
2023-03-26T17:08:42.534Z,10.09
2023-03-26T17:11:19.291Z,10.14
2023-03-26T17:14:03.799Z,9.96
2023-03-26T17:16:40.710Z,10.15
2023-03-26T17:19:29.838Z,10.08
2023-03-26T17:22:02.322Z,10.21
2023-03-26T17:25:06.886Z,10.20
2023-03-26T17:28:00.035Z,10.10
2023-03-26T17:30:44.888Z,10.35
2023-03-26T17:33:23.274Z,10.32
2023-03-26T17:35:51.843Z,10.37
2023-03-26T17:38:18.473Z,10.41
2023-03-26T17:40:50.972Z,10.45
2023-03-26T17:43:48.371Z,10.50
2023-03-26T17:46:39.041Z,10.26
2023-03-26T17:49:11.451Z,10.37
2023-03-26T17:51:57.971Z,10.28
2023-03-26T17:54:28.681Z,10.47
2023-03-26T17:57:00.535Z,10.49
2023-03-26T17:59:28.081Z,10.35
2023-03-26T18:01:59.008Z,10.43
2023-03-26T18:04:36.418Z,10.57
2023-03-26T18:07:27.837Z,10.58
2023-03-26T18:10:09.718Z,10.62
2023-03-26T18:12:50.649Z,10.43
2023-03-26T18:15:34.178Z,10.22
2023-03-26T18:18:13.401Z,10.58
2023-03-26T18:20:47.119Z,10.25
2023-03-26T18:23:29.483Z,10.35
2023-03-26T18:26:11.427Z,10.26
2023-03-26T18:28:44.117Z,10.26
2023-03-26T18:31:26.154Z,10.10
2023-03-26T18:34:04.343Z,10.22
2023-03-26T18:36:31.156Z,10.38
2023-03-26T18:39:05.024Z,10.29
2023-03-26T18:41:37.254Z,10.36
2023-03-26T18:44:06.975Z,10.27
2023-03-26T18:46:34.167Z,10.19
2023-03-26T18:49:01.918Z,10.20
2023-03-26T18:51:31.297Z,10.35
2023-03-26T18:54:00.744Z,10.21
2023-03-26T18:56:35.277Z,10.20
2023-03-26T18:59:05.302Z,10.21
2023-03-26T19:01:35.258Z,10.11
2023-03-26T19:04:07.863Z,9.87
2023-03-26T19:06:39.930Z,10.03
2023-03-26T19:09:23.879Z,10.13
2023-03-26T19:12:05.451Z,10.09
2023-03-26T19:14:36.945Z,10.03
2023-03-26T19:17:06.979Z,10.11
2023-03-26T19:19:37.307Z,10.06
2023-03-26T19:22:06.259Z,10.26
2023-03-26T19:24:34.407Z,10.22
2023-03-26T19:27:01.335Z,10.27
2023-03-26T19:29:31.845Z,10.01
2023-03-26T19:32:15.467Z,9.99
2023-03-26T19:34:48.047Z,10.06
2023-03-26T19:37:26.531Z,9.98
2023-03-26T19:40:14.134Z,10.07
2023-03-26T19:42:44.805Z,10.06
2023-03-26T19:45:19.066Z,10.06
2023-03-26T19:47:49.968Z,10.03
2023-03-26T19:50:29.791Z,10.14
2023-03-26T19:53:16.069Z,10.04
2023-03-26T19:56:15.049Z,9.85
2023-03-26T19:58:43.768Z,10.06
2023-03-26T20:01:20.949Z,10.07
2023-03-26T20:03:55.237Z,10.11
2023-03-26T20:06:41.661Z,10.16
2023-03-26T20:09:13.939Z,10.04
2023-03-26T20:11:43.783Z,10.07
2023-03-26T20:14:16.645Z,10.07
2023-03-26T20:16:46.559Z,10.00
2023-03-26T20:19:14.992Z,10.02
2023-03-26T20:21:46.045Z,10.02
2023-03-26T20:24:15.594Z,10.01
2023-03-26T20:26:43.725Z,9.70
2023-03-26T20:29:17.125Z,9.81
2023-03-26T20:31:48.540Z,9.81
2023-03-26T20:34:20.940Z,9.77
2023-03-26T20:36:54.165Z,9.56
2023-03-26T20:39:26.641Z,9.41
2023-03-26T20:41:53.639Z,9.51
2023-03-26T20:44:21.253Z,9.50
2023-03-26T20:46:49.622Z,9.36
2023-03-26T20:49:17.874Z,9.54
2023-03-26T20:51:45.549Z,9.22
2023-03-26T20:54:21.241Z,9.21
2023-03-26T20:56:48.977Z,9.37
2023-03-26T20:59:22.312Z,9.45
2023-03-26T21:01:49.989Z,9.09
2023-03-26T21:04:17.329Z,9.15
2023-03-26T21:06:44.582Z,9.00
2023-03-26T21:09:17.641Z,9.09
2023-03-26T21:11:49.116Z,9.02
2023-03-26T21:14:22.975Z,8.72
2023-03-26T21:16:50.035Z,8.78
2023-03-26T21:19:16.982Z,8.90
2023-03-26T21:21:59.075Z,8.76
2023-03-26T21:24:58.473Z,8.95
2023-03-26T21:27:37.545Z,8.75
2023-03-26T21:30:10.608Z,8.82
2023-03-26T21:32:37.477Z,8.73
2023-03-26T21:35:04.516Z,8.77
2023-03-26T21:37:31.524Z,8.72
2023-03-26T21:39:59.764Z,8.59
2023-03-26T21:42:29.251Z,8.46
2023-03-26T21:44:56.413Z,8.72
2023-03-26T21:47:23.282Z,8.63
2023-03-26T21:49:50.532Z,8.67
2023-03-26T21:52:17.314Z,8.53
2023-03-26T21:54:44.389Z,8.48
2023-03-26T21:57:26.626Z,8.58
2023-03-26T22:00:14.662Z,8.31
2023-03-26T22:03:00.306Z,8.41
2023-03-26T22:05:40.558Z,8.31
2023-03-26T22:08:32.472Z,8.31
2023-03-26T22:10:59.083Z,8.38
2023-03-26T22:13:25.970Z,8.35
2023-03-26T22:15:52.778Z,8.14
2023-03-26T22:18:21.734Z,8.02
2023-03-26T22:20:49.189Z,7.88
2023-03-26T22:23:16.898Z,7.84
2023-03-26T22:25:43.889Z,7.75
2023-03-26T22:28:10.564Z,7.70
2023-03-26T22:30:37.482Z,7.54
2023-03-26T22:33:04.379Z,7.61
2023-03-26T22:35:31.473Z,7.54
2023-03-26T22:38:00.719Z,7.68
2023-03-26T22:40:28.287Z,7.49
2023-03-26T22:42:55.183Z,7.48
2023-03-26T22:45:22.837Z,7.41
2023-03-26T22:47:49.899Z,7.57
2023-03-26T22:50:16.621Z,7.19
2023-03-26T22:52:43.291Z,7.40
2023-03-26T22:55:11.482Z,7.09
2023-03-26T22:57:39.035Z,7.34
2023-03-26T23:00:16.054Z,7.49
2023-03-26T23:02:45.180Z,7.56
2023-03-26T23:05:13.440Z,7.43
2023-03-26T23:07:40.243Z,7.39
2023-03-26T23:10:08.346Z,7.57
2023-03-26T23:12:35.382Z,7.65
2023-03-26T23:15:05.303Z,7.58
2023-03-26T23:17:36.049Z,7.53
2023-03-26T23:20:06.144Z,7.64
2023-03-26T23:22:35.226Z,7.42
2023-03-26T23:25:01.982Z,7.53
2023-03-26T23:27:29.664Z,7.42
2023-03-26T23:29:56.935Z,7.48
2023-03-26T23:32:25.259Z,7.44
2023-03-26T23:34:52.635Z,7.24
2023-03-26T23:37:23.560Z,7.05
2023-03-26T23:39:51.112Z,6.82
2023-03-26T23:42:28.641Z,7.11
2023-03-26T23:44:56.863Z,6.80
2023-03-26T23:47:23.823Z,6.99
2023-03-26T23:49:50.914Z,6.85
2023-03-26T23:52:17.467Z,6.78
2023-03-26T23:54:44.933Z,6.82
2023-03-26T23:57:11.736Z,6.88
2023-03-26T23:59:38.504Z,6.95
